createdAt,value
2022-10-02T00:02:22.989Z,12.32
2022-10-02T00:04:58.869Z,12.25
2022-10-02T00:07:41.166Z,12.19
2022-10-02T00:10:31.683Z,12.09
2022-10-02T00:13:02.047Z,12.04
2022-10-02T00:15:31.166Z,12.08
2022-10-02T00:18:02.873Z,12.15
2022-10-02T00:21:05.500Z,12.30
2022-10-02T00:23:43.214Z,12.28
2022-10-02T00:26:22.341Z,12.42
2022-10-02T00:29:04.190Z,12.42
2022-10-02T00:31:41.593Z,12.38
2022-10-02T00:34:27.161Z,12.39
2022-10-02T00:37:31.299Z,12.35
2022-10-02T00:40:20.633Z,12.48
2022-10-02T00:43:15.507Z,12.57
2022-10-02T00:45:59.014Z,12.55
2022-10-02T00:49:04.160Z,12.60
2022-10-02T00:51:52.659Z,12.58
2022-10-02T00:54:30.001Z,12.62
2022-10-02T00:57:26.532Z,12.60
2022-10-02T01:00:07.755Z,12.61
2022-10-02T01:02:59.373Z,12.68
2022-10-02T01:05:27.402Z,12.55
2022-10-02T01:07:56.070Z,12.61
2022-10-02T01:10:25.524Z,12.57
2022-10-02T01:12:54.929Z,12.62
2022-10-02T01:15:23.941Z,12.59
2022-10-02T01:17:52.181Z,12.55
2022-10-02T01:20:35.430Z,12.58
2022-10-02T01:23:26.305Z,12.63
2022-10-02T01:25:53.013Z,12.69
2022-10-02T01:28:20.730Z,12.70
2022-10-02T01:30:51.255Z,12.77
2022-10-02T01:33:18.723Z,12.72
2022-10-02T01:35:46.030Z,12.71
2022-10-02T01:38:17.137Z,12.72
2022-10-02T01:40:44.546Z,12.65
2022-10-02T01:43:16.119Z,12.65
2022-10-02T01:45:46.521Z,12.68
2022-10-02T01:48:35.632Z,12.71
2022-10-02T01:51:20.377Z,12.69
2022-10-02T01:53:52.883Z,12.74
2022-10-02T01:56:36.664Z,12.71
2022-10-02T01:59:12.699Z,12.70
2022-10-02T02:02:27.637Z,12.76
2022-10-02T02:05:04.403Z,12.84
2022-10-02T02:07:43.954Z,12.79
2022-10-02T02:10:26.178Z,12.85
2022-10-02T02:13:05.286Z,12.83
2022-10-02T02:15:51.006Z,12.85
2022-10-02T02:18:22.577Z,12.93
2022-10-02T02:20:54.061Z,12.97
2022-10-02T02:23:25.838Z,12.94
2022-10-02T02:25:56.962Z,13.02
2022-10-02T02:28:25.849Z,12.97
2022-10-02T02:30:55.818Z,13.03
2022-10-02T02:33:35.979Z,13.00
2022-10-02T02:36:07.932Z,13.06
2022-10-02T02:38:42.243Z,13.05
2022-10-02T02:41:20.498Z,13.03
2022-10-02T02:43:59.831Z,12.98
2022-10-02T02:47:03.941Z,12.96
2022-10-02T02:49:48.447Z,12.94
2022-10-02T02:52:28.641Z,13.01
2022-10-02T02:55:02.455Z,12.95
2022-10-02T02:57:38.068Z,12.97
2022-10-02T03:00:06.926Z,12.96
2022-10-02T03:02:33.829Z,12.95
2022-10-02T03:05:00.496Z,12.99
2022-10-02T03:07:27.275Z,12.97
2022-10-02T03:10:31.173Z,13.00
2022-10-02T03:13:16.812Z,13.01
2022-10-02T03:16:04.211Z,12.98
2022-10-02T03:19:05.870Z,12.95
2022-10-02T03:22:11.882Z,13.01
2022-10-02T03:24:50.039Z,13.03
2022-10-02T03:27:37.285Z,13.03
2022-10-02T03:30:07.017Z,13.00
2022-10-02T03:32:34.998Z,12.98
2022-10-02T03:35:03.047Z,12.98
2022-10-02T03:37:29.810Z,12.95
2022-10-02T03:40:01.198Z,12.97
2022-10-02T03:42:31.726Z,12.99
2022-10-02T03:44:58.295Z,12.98
2022-10-02T03:47:24.902Z,13.03
2022-10-02T03:49:51.503Z,12.99
2022-10-02T03:52:21.781Z,12.99
2022-10-02T03:54:55.757Z,13.06
2022-10-02T03:57:23.188Z,13.05
2022-10-02T04:00:06.491Z,13.02
2022-10-02T04:02:43.479Z,13.02
2022-10-02T04:05:10.372Z,13.02
2022-10-02T04:07:39.892Z,13.03
2022-10-02T04:10:27.893Z,13.04
2022-10-02T04:13:02.442Z,13.00
2022-10-02T04:15:36.479Z,13.05
2022-10-02T04:18:10.378Z,13.04
2022-10-02T04:20:43.280Z,13.07
2022-10-02T04:23:34.369Z,13.04
2022-10-02T04:26:15.021Z,13.06
2022-10-02T04:28:49.745Z,13.17
2022-10-02T04:31:16.411Z,13.10
2022-10-02T04:33:43.008Z,13.13
2022-10-02T04:36:40.109Z,13.11
2022-10-02T04:39:47.823Z,13.07
2022-10-02T04:42:39.249Z,13.08
2022-10-02T04:45:49.002Z,13.13
2022-10-02T04:48:40.045Z,13.12
2022-10-02T04:51:20.018Z,13.15
2022-10-02T04:54:03.019Z,13.13
2022-10-02T04:56:41.664Z,13.13
2022-10-02T04:59:28.478Z,13.08
2022-10-02T05:02:06.838Z,13.09
2022-10-02T05:04:39.441Z,13.13
2022-10-02T05:07:30.490Z,13.17
2022-10-02T05:10:16.947Z,13.15
2022-10-02T05:13:37.443Z,13.14
2022-10-02T05:16:36.128Z,13.15
2022-10-02T05:19:49.400Z,13.15
2022-10-02T05:22:21.460Z,13.13
2022-10-02T05:25:22.093Z,13.10
2022-10-02T05:28:16.262Z,13.14
2022-10-02T05:31:09.433Z,13.13
2022-10-02T05:33:48.331Z,13.15
2022-10-02T05:36:29.607Z,13.16
2022-10-02T05:39:07.365Z,13.15
2022-10-02T05:41:36.950Z,13.17
2022-10-02T05:44:19.366Z,13.16
2022-10-02T05:46:52.692Z,13.17
2022-10-02T05:49:24.871Z,13.15
2022-10-02T05:52:02.628Z,13.16
2022-10-02T05:55:12.280Z,13.12
2022-10-02T05:57:53.298Z,13.09
2022-10-02T06:00:24.154Z,13.08
2022-10-02T06:03:15.600Z,13.05
2022-10-02T06:05:47.951Z,13.04
2022-10-02T06:08:19.997Z,13.02
2022-10-02T06:10:50.600Z,13.04
2022-10-02T06:13:29.290Z,13.04
2022-10-02T06:16:08.023Z,13.04
2022-10-02T06:18:38.436Z,13.03
2022-10-02T06:21:21.287Z,13.01
2022-10-02T06:23:52.046Z,13.04
2022-10-02T06:26:46.050Z,13.04
2022-10-02T06:29:27.182Z,13.03
2022-10-02T06:32:12.324Z,13.02
2022-10-02T06:34:38.911Z,13.03
2022-10-02T06:37:11.464Z,13.04
2022-10-02T06:40:02.386Z,13.03
2022-10-02T06:43:04.150Z,13.05
2022-10-02T06:45:58.355Z,13.09
2022-10-02T06:48:32.393Z,13.11
2022-10-02T06:51:02.201Z,13.15
2022-10-02T06:53:34.401Z,13.18
2022-10-02T06:56:24.707Z,13.21
2022-10-02T06:59:16.617Z,13.20
2022-10-02T07:02:11.962Z,13.20
2022-10-02T07:04:51.326Z,13.23
2022-10-02T07:07:20.794Z,13.26
2022-10-02T07:10:00.932Z,13.28
2022-10-02T07:12:55.622Z,13.32
2022-10-02T07:15:40.566Z,13.33
2022-10-02T07:18:10.163Z,13.35
2022-10-02T07:21:23.228Z,13.36
2022-10-02T07:24:14.685Z,13.41
2022-10-02T07:26:53.531Z,13.42
2022-10-02T07:29:43.239Z,13.46
2022-10-02T07:32:43.393Z,13.45
2022-10-02T07:35:32.934Z,13.43
2022-10-02T07:38:43.381Z,13.48
2022-10-02T07:41:22.611Z,13.46
2022-10-02T07:43:58.475Z,13.47
2022-10-02T07:46:55.066Z,13.42
2022-10-02T07:49:47.934Z,13.44
2022-10-02T07:52:20.241Z,13.40
2022-10-02T07:54:58.529Z,13.42
2022-10-02T07:57:36.061Z,13.47
2022-10-02T08:00:13.495Z,13.43
2022-10-02T08:02:55.066Z,13.54
2022-10-02T08:05:26.584Z,13.53
2022-10-02T08:07:58.304Z,13.54
2022-10-02T08:10:28.398Z,13.58
2022-10-02T08:13:04.853Z,13.57
2022-10-02T08:15:35.766Z,13.58
2022-10-02T08:18:33.792Z,13.58
2022-10-02T08:21:02.820Z,13.65
2022-10-02T08:23:37.810Z,13.62
2022-10-02T08:26:14.484Z,13.71
2022-10-02T08:28:49.420Z,13.68
2022-10-02T08:31:16.329Z,13.63
2022-10-02T08:33:43.343Z,13.54
2022-10-02T08:36:28.609Z,13.60
2022-10-02T08:39:26.140Z,13.64
2022-10-02T08:42:04.349Z,13.76
2022-10-02T08:44:56.364Z,13.78
2022-10-02T08:47:47.563Z,13.82
2022-10-02T08:50:20.130Z,13.84
2022-10-02T08:53:11.706Z,13.75
2022-10-02T08:56:05.326Z,13.87
2022-10-02T08:58:50.168Z,13.96
2022-10-02T09:01:29.932Z,14.03
2022-10-02T09:04:13.038Z,14.02
2022-10-02T09:06:54.779Z,14.01
2022-10-02T09:09:40.044Z,14.01
2022-10-02T09:12:37.949Z,14.03
2022-10-02T09:15:16.722Z,14.03
2022-10-02T09:17:49.230Z,14.06
2022-10-02T09:20:36.698Z,14.05
2022-10-02T09:23:48.766Z,14.11
2022-10-02T09:26:33.258Z,14.13
2022-10-02T09:29:06.440Z,14.32
2022-10-02T09:31:54.804Z,14.37
2022-10-02T09:35:02.169Z,14.40
2022-10-02T09:37:59.363Z,14.59
2022-10-02T09:40:53.353Z,14.48
2022-10-02T09:43:51.929Z,14.65
2022-10-02T09:46:35.304Z,14.65
2022-10-02T09:49:20.928Z,14.59
2022-10-02T09:52:18.578Z,14.62
2022-10-02T09:54:51.118Z,14.55
2022-10-02T09:57:36.602Z,14.51
2022-10-02T10:00:49.356Z,14.60
2022-10-02T10:03:31.090Z,14.50
2022-10-02T10:06:17.953Z,14.51
2022-10-02T10:09:18.627Z,14.58
2022-10-02T10:12:14.646Z,14.60
2022-10-02T10:15:19.495Z,14.64
2022-10-02T10:18:04.334Z,14.70
2022-10-02T10:21:07.641Z,14.65
2022-10-02T10:23:56.286Z,15.02
2022-10-02T10:26:51.130Z,14.95
2022-10-02T10:29:42.195Z,15.00
2022-10-02T10:32:36.542Z,15.07
2022-10-02T10:35:19.227Z,14.91
2022-10-02T10:38:29.597Z,14.82
2022-10-02T10:41:17.288Z,14.86
2022-10-02T10:44:11.898Z,14.97
2022-10-02T10:47:02.666Z,15.06
2022-10-02T10:49:55.198Z,14.96
2022-10-02T10:52:55.935Z,15.09
2022-10-02T10:56:09.077Z,15.05
2022-10-02T10:58:54.708Z,15.21
2022-10-02T11:01:37.016Z,15.02
2022-10-02T11:04:48.218Z,14.92
2022-10-02T11:07:37.783Z,15.08
2022-10-02T11:10:47.103Z,15.01
2022-10-02T11:13:16.915Z,15.19
2022-10-02T11:16:02.577Z,15.32
2022-10-02T11:18:44.540Z,15.16
2022-10-02T11:21:31.788Z,14.89
2022-10-02T11:24:33.965Z,14.98
2022-10-02T11:27:17.066Z,14.93
2022-10-02T11:30:01.944Z,15.00
2022-10-02T11:32:51.312Z,15.07
2022-10-02T11:35:30.212Z,15.03
2022-10-02T11:38:24.807Z,14.98
2022-10-02T11:41:01.829Z,14.90
2022-10-02T11:44:08.404Z,14.93
2022-10-02T11:46:53.603Z,15.03
2022-10-02T11:49:31.593Z,15.01
2022-10-02T11:52:17.205Z,15.07
2022-10-02T11:54:59.260Z,14.97
2022-10-02T11:57:55.394Z,14.88
2022-10-02T12:01:09.327Z,14.75
2022-10-02T12:03:46.680Z,14.88
2022-10-02T12:06:21.423Z,14.99
2022-10-02T12:09:06.269Z,15.01
2022-10-02T12:11:56.896Z,14.96
2022-10-02T12:14:51.913Z,15.17
2022-10-02T12:17:27.236Z,15.11
2022-10-02T12:20:40.658Z,15.39
2022-10-02T12:23:31.735Z,15.54
2022-10-02T12:26:26.512Z,15.39
2022-10-02T12:29:19.326Z,15.54
2022-10-02T12:31:59.289Z,15.55
2022-10-02T12:34:40.432Z,15.53
2022-10-02T12:37:25.101Z,15.57
2022-10-02T12:40:16.810Z,15.78
2022-10-02T12:42:52.707Z,15.77
2022-10-02T12:45:28.238Z,15.74
2022-10-02T12:48:28.578Z,15.69
2022-10-02T12:50:55.137Z,15.70
2022-10-02T12:54:00.864Z,15.49
2022-10-02T12:56:45.907Z,15.51
2022-10-02T12:59:27.474Z,15.40
2022-10-02T13:02:13.776Z,15.24
2022-10-02T13:04:43.398Z,15.45
2022-10-02T13:07:48.978Z,15.42
2022-10-02T13:10:28.099Z,15.42
2022-10-02T13:13:09.954Z,15.26
2022-10-02T13:15:45.402Z,15.09
2022-10-02T13:18:45.501Z,15.30
2022-10-02T13:21:47.370Z,15.56
2022-10-02T13:24:44.984Z,15.76
2022-10-02T13:27:31.681Z,15.80
2022-10-02T13:30:18.268Z,16.18
2022-10-02T13:32:52.445Z,15.99
2022-10-02T13:35:32.381Z,15.78
2022-10-02T13:38:39.727Z,15.82
2022-10-02T13:41:14.161Z,15.66
2022-10-02T13:43:55.294Z,15.89
2022-10-02T13:46:28.402Z,15.96
2022-10-02T13:49:07.273Z,15.89
2022-10-02T13:52:11.146Z,15.94
2022-10-02T13:54:50.137Z,15.90
2022-10-02T13:57:52.697Z,15.89
2022-10-02T14:00:40.831Z,15.69
2022-10-02T14:03:25.703Z,15.64
2022-10-02T14:05:58.281Z,15.71
2022-10-02T14:08:55.867Z,15.86
2022-10-02T14:11:56.423Z,15.58
2022-10-02T14:14:38.713Z,15.61
2022-10-02T14:17:31.094Z,15.54
2022-10-02T14:20:21.140Z,15.55
2022-10-02T14:23:06.330Z,15.61
2022-10-02T14:25:54.023Z,15.67
2022-10-02T14:28:30.775Z,15.84
2022-10-02T14:31:24.964Z,15.67
2022-10-02T14:34:22.103Z,15.52
2022-10-02T14:37:16.762Z,15.38
2022-10-02T14:39:45.798Z,15.43
2022-10-02T14:42:25.034Z,15.40
2022-10-02T14:45:34.910Z,15.46
2022-10-02T14:48:20.887Z,15.41
2022-10-02T14:51:26.350Z,15.30
2022-10-02T14:54:11.921Z,15.51
2022-10-02T14:56:42.071Z,15.37
2022-10-02T14:59:11.562Z,15.28
2022-10-02T15:01:53.944Z,15.14
2022-10-02T15:04:46.779Z,15.08
2022-10-02T15:07:16.515Z,14.96
2022-10-02T15:10:28.254Z,14.98
2022-10-02T15:13:08.069Z,14.98
2022-10-02T15:16:15.694Z,14.87
2022-10-02T15:19:16.591Z,14.90
2022-10-02T15:22:01.844Z,14.72
2022-10-02T15:24:31.114Z,14.82
2022-10-02T15:27:15.686Z,14.84
2022-10-02T15:30:11.982Z,14.72
2022-10-02T15:32:53.849Z,14.72
2022-10-02T15:35:47.141Z,14.80
2022-10-02T15:38:32.253Z,14.59
2022-10-02T15:41:28.574Z,14.62
2022-10-02T15:44:32.601Z,14.59
2022-10-02T15:48:00.858Z,14.62
2022-10-02T15:50:47.152Z,14.58
2022-10-02T15:53:13.686Z,14.63
2022-10-02T15:55:42.975Z,14.50
2022-10-02T15:58:41.171Z,14.43
2022-10-02T16:01:24.517Z,14.45
2022-10-02T16:03:54.372Z,14.37
2022-10-02T16:06:53.569Z,14.37
2022-10-02T16:09:40.405Z,14.42
2022-10-02T16:12:17.980Z,14.40
2022-10-02T16:14:55.259Z,14.24
2022-10-02T16:17:42.062Z,14.24
2022-10-02T16:20:24.361Z,14.34
2022-10-02T16:23:06.109Z,14.25
2022-10-02T16:25:58.388Z,14.20
2022-10-02T16:28:43.464Z,14.13
2022-10-02T16:31:27.146Z,14.10
2022-10-02T16:34:18.445Z,14.10
2022-10-02T16:36:57.426Z,14.12
2022-10-02T16:40:03.294Z,14.11
2022-10-02T16:43:12.895Z,14.05
2022-10-02T16:46:01.318Z,14.07
2022-10-02T16:48:41.496Z,14.03
2022-10-02T16:51:14.973Z,13.75
2022-10-02T16:53:49.658Z,13.65
2022-10-02T16:56:32.431Z,13.67
2022-10-02T16:59:06.727Z,13.68
2022-10-02T17:01:35.467Z,13.52
2022-10-02T17:04:26.002Z,13.41
2022-10-02T17:07:02.923Z,13.32
2022-10-02T17:09:52.103Z,13.21
2022-10-02T17:12:30.482Z,13.15
2022-10-02T17:15:16.345Z,13.09
2022-10-02T17:17:42.844Z,12.97
2022-10-02T17:20:20.389Z,12.95
2022-10-02T17:23:13.438Z,13.04
2022-10-02T17:25:57.473Z,13.02
2022-10-02T17:28:46.854Z,12.97
2022-10-02T17:31:17.493Z,12.99
2022-10-02T17:34:05.721Z,13.00
2022-10-02T17:36:41.906Z,13.05
2022-10-02T17:39:36.180Z,13.09
2022-10-02T17:42:32.764Z,13.02
2022-10-02T17:45:19.535Z,13.07
2022-10-02T17:48:05.772Z,13.06
2022-10-02T17:50:42.770Z,13.09
2022-10-02T17:53:39.583Z,13.08
2022-10-02T17:56:30.579Z,13.05
2022-10-02T17:59:24.120Z,13.03
2022-10-02T18:02:14.914Z,13.08
2022-10-02T18:05:00.130Z,13.09
2022-10-02T18:07:38.667Z,13.11
2022-10-02T18:10:08.455Z,13.12
2022-10-02T18:12:38.059Z,12.96
2022-10-02T18:15:40.182Z,12.93
2022-10-02T18:18:24.145Z,12.90
2022-10-02T18:21:20.592Z,12.84
2022-10-02T18:24:14.324Z,12.88
2022-10-02T18:26:52.103Z,12.87
2022-10-02T18:29:35.075Z,12.91
2022-10-02T18:32:14.849Z,12.91
2022-10-02T18:35:00.280Z,12.88
2022-10-02T18:38:01.984Z,12.85
2022-10-02T18:40:51.868Z,12.85
2022-10-02T18:43:47.654Z,12.81
2022-10-02T18:46:32.500Z,12.72
2022-10-02T18:49:06.242Z,12.65
2022-10-02T18:51:54.752Z,12.69
2022-10-02T18:54:41.989Z,12.62
2022-10-02T18:57:08.558Z,12.66
2022-10-02T18:59:49.192Z,12.59
2022-10-02T19:02:45.554Z,12.66
2022-10-02T19:05:19.519Z,12.65
2022-10-02T19:07:53.077Z,12.62
2022-10-02T19:10:29.790Z,12.64
2022-10-02T19:13:27.146Z,12.66
2022-10-02T19:15:58.590Z,12.71
2022-10-02T19:18:28.398Z,12.71
2022-10-02T19:21:14.463Z,12.71
2022-10-02T19:23:48.899Z,12.75
2022-10-02T19:26:34.739Z,12.77
2022-10-02T19:29:07.628Z,12.77
2022-10-02T19:31:39.479Z,12.79
2022-10-02T19:34:14.750Z,12.79
2022-10-02T19:36:50.358Z,12.76
2022-10-02T19:39:30.656Z,12.78
2022-10-02T19:42:00.725Z,12.83
2022-10-02T19:44:38.256Z,12.81
2022-10-02T19:47:16.857Z,12.82
2022-10-02T19:49:47.488Z,12.82
2022-10-02T19:52:36.162Z,12.86
2022-10-02T19:55:40.793Z,12.90
2022-10-02T19:58:36.210Z,12.88
2022-10-02T20:01:05.155Z,12.91
2022-10-02T20:03:32.901Z,12.92
2022-10-02T20:06:14.160Z,12.92
2022-10-02T20:08:54.980Z,12.94
2022-10-02T20:11:33.242Z,12.93
2022-10-02T20:14:06.318Z,12.89
2022-10-02T20:16:51.653Z,12.90
2022-10-02T20:19:24.863Z,12.94
2022-10-02T20:21:54.796Z,12.90
2022-10-02T20:24:44.543Z,12.84
2022-10-02T20:27:22.653Z,12.86
2022-10-02T20:29:55.682Z,12.84
2022-10-02T20:32:39.058Z,12.84
2022-10-02T20:35:15.173Z,12.81
2022-10-02T20:37:43.210Z,12.84
2022-10-02T20:40:18.364Z,12.79
2022-10-02T20:43:03.686Z,12.83
2022-10-02T20:45:43.187Z,12.86
2022-10-02T20:49:09.915Z,12.89
2022-10-02T20:51:55.316Z,12.87
2022-10-02T20:54:54.208Z,12.86
2022-10-02T20:58:04.195Z,12.85
2022-10-02T21:01:02.168Z,12.76
2022-10-02T21:04:13.671Z,12.77
2022-10-02T21:07:06.734Z,12.76
2022-10-02T21:09:39.847Z,12.71
2022-10-02T21:12:28.074Z,12.69
2022-10-02T21:15:07.139Z,12.63
2022-10-02T21:17:46.024Z,12.64
2022-10-02T21:20:50.131Z,12.68
2022-10-02T21:24:10.537Z,12.65
2022-10-02T21:26:40.405Z,12.63
2022-10-02T21:29:09.863Z,12.63
2022-10-02T21:31:58.497Z,12.63
2022-10-02T21:34:36.541Z,12.62
2022-10-02T21:37:25.673Z,12.62
2022-10-02T21:40:11.011Z,12.63
2022-10-02T21:42:52.769Z,12.65
2022-10-02T21:45:37.734Z,12.59
2022-10-02T21:48:25.644Z,12.58
2022-10-02T21:51:31.179Z,12.55
2022-10-02T21:54:25.117Z,12.47
2022-10-02T21:57:29.040Z,12.41
2022-10-02T22:00:15.397Z,12.45
2022-10-02T22:03:12.345Z,12.42
2022-10-02T22:06:06.664Z,12.46
2022-10-02T22:09:07.398Z,12.45
2022-10-02T22:12:01.598Z,12.33
2022-10-02T22:14:36.888Z,12.21
2022-10-02T22:17:34.610Z,12.15
2022-10-02T22:20:25.770Z,12.12
2022-10-02T22:23:04.290Z,12.12
2022-10-02T22:25:31.386Z,12.09
2022-10-02T22:28:23.016Z,11.95
2022-10-02T22:31:06.027Z,11.90
2022-10-02T22:34:03.017Z,11.74
2022-10-02T22:36:52.105Z,11.71
2022-10-02T22:39:24.518Z,11.60
2022-10-02T22:42:03.951Z,11.58
2022-10-02T22:44:42.074Z,11.65
2022-10-02T22:47:28.608Z,11.73
2022-10-02T22:50:01.297Z,11.74
2022-10-02T22:52:49.035Z,11.65
2022-10-02T22:55:26.552Z,11.68
2022-10-02T22:58:31.808Z,11.70
2022-10-02T23:01:17.001Z,11.66
2022-10-02T23:04:04.178Z,11.67
2022-10-02T23:06:41.328Z,11.63
2022-10-02T23:09:18.713Z,11.64
2022-10-02T23:11:53.417Z,11.50
2022-10-02T23:14:29.741Z,11.54
2022-10-02T23:17:00.176Z,11.43
2022-10-02T23:19:44.728Z,11.36
2022-10-02T23:22:26.148Z,11.25
2022-10-02T23:25:08.889Z,11.14
2022-10-02T23:27:55.600Z,11.19
2022-10-02T23:30:23.255Z,11.15
2022-10-02T23:32:59.666Z,11.28
2022-10-02T23:35:28.733Z,11.33
2022-10-02T23:38:06.373Z,11.32
2022-10-02T23:41:10.736Z,11.28
2022-10-02T23:43:47.992Z,11.13
2022-10-02T23:46:25.799Z,11.12
2022-10-02T23:48:54.029Z,11.01
2022-10-02T23:51:33.089Z,10.93
2022-10-02T23:54:11.955Z,10.83
2022-10-02T23:57:20.234Z,10.78
